Grizzly Air Cargo 5112


PAJN
Juneau International Airport
Juneau, Alaska, US
PANC
Ted Stevens Anchorage International Airport
Anchorage, Alaska, US

Activity Log

Date Flight Route Aircraft Duration
09/27/2019 GRZ502 CHLKT1 ALATY JOH WITTI4 B722 1h 30m
09/24/2019 GRZ532 CHLKT1 ALATY JOH WITTI4 B738 1h 38m
08/28/2019 GRZ532 CHLKT1 ALATY JOH WITTI4 B738 1h 24m
08/04/2019 GRZ532 CHLKT1 ALATY JOH WITTI4 B738 1h 37m
07/01/2019 GRZ502 CHLKT1 ALATY JOH WITTI4 B722 1h 39m
04/15/2019 GRZ502 ASORT2 ASORT J541 YAK J501 JOH B722 1h 33m
03/07/2019 GRZ502 CHLKT1 ALATY JOH WITTI4 B722 1h 37m

Route Details

Aircraft Information
Primary: Boeing 727-200F
Backup: Boeing 737-800BCF
Route Data
Distance: 496nm
Sched. Duration: 2h 00m
Avg. Duration: 1h 34m (-66m)
Times Flown: 7
Recm'd Route: CHLKT1 ALATY JOH WITTI4
Planned Altitude: 30,000ft
Origin Wx: PAJN 210907Z 11023G29KT 10SM -RA SCT014 BKN031 OVC046 03/01 A2935 RMK AO2 PK WND 10029/0903 P0000 T00280011
Dest. Wx: PANC 210853Z 16003KT 10SM FEW065 SCT100 BKN250 M06/M07 A2889 RMK AO2 SLP786 I1000 I3000 T10561067 400001067 53014 $
Notes:

Financial History
Total Freight: 252,303lbs
Average Load: 36,043lbs/flt
Fuel Used: 75,950lbs
Avg. Fuel Used: 10,850lbs/flt
Fuel Expense: $81,267
Avg. Fuel Expense: $11,610
Avg. Fuel Cost: $1.07/lbs
Total Gross Income: $358,270
Pilot Pay: $1,363
Total Expenses: $39,057
Total Revenue: $235,545
Average Revenue: $51,181.47